Terminal Aerodrome Forecast
Issued by NWS

Home | Current Version | Previous Version | Text Only | Print | Product List | Glossary On
Versions: 1 2 3 4 5 6 7 8 9 10 11 12 13 14
000
FTAK31 PAJN 261720
TAFAPG
TAF
PAPG 261720Z 2618/2718 VRB03KT P6SM -RA SCT010 BKN020 OVC030
      TEMPO 2618/2622 4SM -RA BR SCT007 BKN020 OVC025
     FM270300 VRB03KT P6SM VCSH SCT015 OVC030=

USA.gov is the U.S. government's official web portal to all federal, state and local government web resources and services.